createdAt,value
2022-09-20T00:01:37.705Z,0.80
2022-09-20T00:04:05.755Z,1.00
2022-09-20T00:06:32.321Z,0.57
2022-09-20T00:08:59.703Z,0.95
2022-09-20T00:11:27.571Z,1.15
2022-09-20T00:13:56.142Z,0.60
2022-09-20T00:16:29.845Z,0.32
2022-09-20T00:18:57.471Z,0.60
2022-09-20T00:21:25.966Z,0.60
2022-09-20T00:23:52.712Z,0.70
2022-09-20T00:26:19.173Z,0.93
2022-09-20T00:28:47.050Z,0.80
2022-09-20T00:31:13.823Z,0.60
2022-09-20T00:33:58.795Z,0.40
2022-09-20T00:36:25.336Z,0.60
2022-09-20T00:38:55.284Z,0.90
2022-09-20T00:41:21.609Z,0.70
2022-09-20T00:43:47.924Z,0.80
2022-09-20T00:46:21.461Z,0.52
2022-09-20T00:48:48.799Z,0.60
2022-09-20T00:51:17.865Z,0.60
2022-09-20T00:53:47.090Z,0.50
2022-09-20T00:56:16.074Z,0.60
2022-09-20T00:58:46.518Z,0.60
2022-09-20T01:01:13.642Z,0.50
2022-09-20T01:03:40.964Z,0.40
2022-09-20T01:06:09.884Z,0.50
2022-09-20T01:08:36.464Z,0.55
2022-09-20T01:11:03.005Z,0.60
2022-09-20T01:13:29.332Z,0.70
2022-09-20T01:15:58.603Z,0.55
2022-09-20T01:18:25.269Z,0.38
2022-09-20T01:20:51.652Z,0.70
2022-09-20T01:23:23.710Z,0.60
2022-09-20T01:26:12.301Z,0.52
2022-09-20T01:28:39.795Z,0.50
2022-09-20T01:31:06.096Z,0.47
2022-09-20T01:33:40.182Z,0.50
2022-09-20T01:36:06.875Z,0.60
2022-09-20T01:38:36.639Z,0.57
2022-09-20T01:41:15.867Z,0.63
2022-09-20T01:43:52.944Z,0.40
2022-09-20T01:46:31.427Z,0.73
2022-09-20T01:49:00.810Z,1.40
2022-09-20T01:51:30.115Z,0.68
2022-09-20T01:53:56.564Z,0.50
2022-09-20T01:56:41.751Z,0.52
2022-09-20T01:59:26.977Z,0.40
2022-09-20T02:01:53.583Z,0.70
2022-09-20T02:04:40.339Z,0.60
2022-09-20T02:07:22.012Z,0.40
2022-09-20T02:10:07.584Z,0.65
2022-09-20T02:12:36.713Z,0.47
2022-09-20T02:15:21.950Z,0.50
2022-09-20T02:17:54.219Z,0.40
2022-09-20T02:20:37.107Z,0.70
2022-09-20T02:23:20.842Z,0.55
2022-09-20T02:26:00.330Z,0.40
2022-09-20T02:28:45.495Z,0.65
2022-09-20T02:31:20.689Z,0.70
2022-09-20T02:33:47.055Z,0.50
2022-09-20T02:36:21.812Z,0.73
2022-09-20T02:38:50.939Z,0.52
2022-09-20T02:41:26.827Z,0.75
2022-09-20T02:44:07.353Z,0.77
2022-09-20T02:47:06.193Z,0.50
2022-09-20T02:49:35.519Z,0.50
2022-09-20T02:52:11.182Z,0.60
2022-09-20T02:59:48.994Z,0.45
2022-09-20T03:02:33.925Z,0.60
2022-09-20T03:05:03.095Z,0.70
2022-09-20T03:07:35.260Z,1.23
2022-09-20T03:10:01.576Z,0.60
2022-09-20T03:12:37.248Z,0.60
2022-09-20T03:22:39.777Z,0.50
2022-09-20T03:25:08.976Z,0.35
2022-09-20T03:27:41.836Z,0.50
2022-09-20T03:30:24.281Z,0.50
2022-09-20T03:32:56.953Z,0.40
2022-09-20T03:35:38.599Z,0.60
2022-09-20T03:38:23.754Z,0.85
2022-09-20T03:40:52.935Z,0.88
2022-09-20T03:43:22.427Z,0.93
2022-09-20T03:45:48.829Z,0.55
2022-09-20T03:48:18.374Z,1.00
2022-09-20T03:50:47.551Z,0.75
2022-09-20T03:53:40.457Z,1.00
2022-09-20T03:56:11.289Z,0.30
2022-09-20T03:58:56.311Z,0.70
2022-09-20T04:01:37.945Z,0.60
2022-09-20T04:04:28.264Z,0.40
2022-09-20T04:06:54.578Z,0.70
2022-09-20T04:09:29.773Z,0.60
2022-09-20T04:12:07.536Z,0.45
2022-09-20T04:14:40.075Z,0.80
2022-09-20T04:17:26.343Z,0.40
2022-09-20T04:20:05.731Z,0.35
2022-09-20T04:22:32.975Z,0.45
2022-09-20T04:25:09.678Z,0.50
2022-09-20T04:27:46.045Z,0.50
2022-09-20T04:30:46.217Z,0.50
2022-09-20T04:33:12.505Z,0.50
2022-09-20T04:36:02.303Z,0.50
2022-09-20T04:38:29.189Z,0.75
2022-09-20T04:41:01.831Z,0.60
2022-09-20T04:43:28.139Z,0.40
2022-09-20T04:45:54.598Z,0.52
2022-09-20T04:48:20.972Z,0.40
2022-09-20T04:50:50.308Z,0.85
2022-09-20T04:53:43.539Z,0.52
2022-09-20T04:56:19.587Z,0.63
2022-09-20T04:58:55.307Z,0.47
2022-09-20T05:03:51.571Z,0.30
2022-09-20T05:06:24.090Z,0.70
2022-09-20T05:08:58.890Z,0.50
2022-09-20T05:11:30.557Z,0.50
2022-09-20T05:13:57.279Z,0.55
2022-09-20T05:16:23.616Z,0.65
2022-09-20T05:18:53.014Z,0.57
2022-09-20T05:21:29.454Z,0.32
2022-09-20T05:24:18.755Z,0.50
2022-09-20T05:26:57.241Z,0.40
2022-09-20T05:29:49.902Z,0.55
2022-09-20T05:32:18.380Z,0.30
2022-09-20T05:34:48.615Z,0.30
2022-09-20T05:37:34.890Z,0.57
2022-09-20T05:40:22.955Z,0.50
2022-09-20T05:43:00.403Z,0.65
2022-09-20T05:45:26.728Z,0.50
2022-09-20T05:47:57.321Z,0.70
2022-09-20T05:50:23.987Z,0.47
2022-09-20T05:53:09.127Z,0.80
2022-09-20T05:55:42.358Z,0.77
2022-09-20T05:58:27.706Z,0.90
2022-09-20T06:01:03.312Z,0.63
2022-09-20T06:03:48.593Z,0.65
2022-09-20T06:06:33.429Z,0.80
2022-09-20T06:09:35.183Z,0.40
2022-09-20T06:12:19.920Z,0.70
2022-09-20T06:14:49.001Z,0.82
2022-09-20T06:17:19.047Z,0.63
2022-09-20T06:19:48.449Z,0.70
2022-09-20T06:22:37.785Z,0.70
2022-09-20T06:25:06.900Z,0.50
2022-09-20T06:27:41.089Z,0.52
2022-09-20T06:30:12.828Z,0.52
2022-09-20T06:32:58.074Z,0.63
2022-09-20T06:35:28.917Z,0.53
2022-09-20T06:38:20.752Z,0.40
2022-09-20T06:41:07.948Z,0.40
2022-09-20T06:43:36.195Z,0.80
2022-09-20T06:46:02.552Z,0.40
2022-09-20T06:48:31.510Z,1.50
2022-09-20T06:50:58.910Z,0.60
2022-09-20T06:53:29.750Z,0.50
2022-09-20T06:55:56.699Z,0.45
2022-09-20T06:58:23.102Z,0.50
2022-09-20T07:00:49.515Z,0.57
2022-09-20T07:03:15.848Z,0.60
2022-09-20T07:05:42.226Z,0.40
2022-09-20T07:08:08.654Z,0.30
2022-09-20T07:10:35.593Z,0.70
2022-09-20T07:13:02.584Z,0.70
2022-09-20T07:15:29.367Z,0.80
2022-09-20T07:17:55.867Z,0.45
2022-09-20T07:20:22.794Z,0.73
2022-09-20T07:22:49.689Z,1.00
2022-09-20T07:25:17.727Z,0.80
2022-09-20T07:27:46.378Z,0.55
2022-09-20T07:30:14.006Z,0.60
2022-09-20T07:32:41.032Z,0.70
2022-09-20T07:35:08.430Z,0.43
2022-09-20T07:37:37.097Z,0.90
2022-09-20T07:40:05.243Z,0.45
2022-09-20T07:42:31.955Z,0.40
2022-09-20T07:44:58.806Z,0.38
2022-09-20T07:47:25.319Z,0.40
2022-09-20T07:49:51.643Z,0.50
2022-09-20T07:52:18.693Z,0.40
2022-09-20T07:54:46.049Z,0.50
2022-09-20T07:57:13.292Z,0.40
2022-09-20T07:59:39.609Z,0.50
2022-09-20T08:02:06.326Z,0.40
2022-09-20T08:04:32.681Z,0.35
2022-09-20T08:06:59.896Z,0.22
2022-09-20T08:09:26.239Z,0.55
2022-09-20T08:11:53.185Z,0.50
2022-09-20T08:14:20.060Z,0.93
2022-09-20T08:16:47.950Z,0.60
2022-09-20T08:19:18.694Z,0.50
2022-09-20T08:21:45.118Z,0.45
2022-09-20T08:24:11.656Z,0.65
2022-09-20T08:26:38.037Z,0.50
2022-09-20T08:29:05.897Z,0.60
2022-09-20T08:31:35.323Z,0.70
2022-09-20T08:34:06.383Z,0.75
2022-09-20T08:36:36.359Z,0.40
2022-09-20T08:42:03.267Z,0.63
2022-09-20T08:44:47.219Z,0.70
2022-09-20T08:47:21.372Z,0.80
2022-09-20T08:49:48.176Z,0.73
2022-09-20T08:52:23.208Z,0.68
2022-09-20T08:54:49.570Z,0.45
2022-09-20T08:57:17.472Z,0.50
2022-09-20T08:59:44.008Z,0.70
2022-09-20T09:02:18.119Z,0.75
2022-09-20T09:04:48.660Z,0.70
2022-09-20T09:07:16.448Z,0.98
2022-09-20T09:09:44.129Z,1.20
2022-09-20T09:12:19.291Z,0.52
2022-09-20T09:14:48.437Z,1.10
2022-09-20T09:17:19.754Z,0.55
2022-09-20T09:19:47.748Z,0.50
2022-09-20T09:22:21.816Z,0.52
2022-09-20T09:25:07.063Z,0.45
2022-09-20T09:27:35.090Z,0.40
2022-09-20T09:30:01.517Z,1.70
2022-09-20T09:32:29.379Z,0.60
2022-09-20T09:34:55.999Z,0.85
2022-09-20T09:37:28.285Z,0.80
2022-09-20T09:40:16.487Z,0.75
2022-09-20T09:42:50.220Z,1.00
2022-09-20T09:45:38.531Z,0.60
2022-09-20T09:48:19.224Z,0.55
2022-09-20T09:50:45.596Z,1.27
2022-09-20T09:53:16.996Z,0.50
2022-09-20T09:55:52.751Z,0.40
2022-09-20T10:00:49.123Z,0.43
2022-09-20T10:03:28.748Z,0.60
2022-09-20T10:06:13.940Z,0.73
2022-09-20T10:08:56.172Z,0.30
2022-09-20T10:11:37.928Z,0.80
2022-09-20T10:14:13.589Z,0.28
2022-09-20T10:16:58.559Z,0.52
2022-09-20T10:19:42.959Z,0.60
2022-09-20T10:22:09.302Z,0.43
2022-09-20T10:24:49.780Z,1.42
2022-09-20T10:27:23.664Z,0.50
2022-09-20T10:30:09.434Z,0.80
2022-09-20T10:32:55.162Z,0.65
2022-09-20T10:35:26.396Z,0.70
2022-09-20T10:38:11.082Z,0.73
2022-09-20T10:41:03.092Z,0.60
2022-09-20T10:43:35.579Z,1.00
2022-09-20T10:46:30.714Z,1.30
2022-09-20T10:49:18.377Z,0.80
2022-09-20T10:51:53.015Z,1.00
2022-09-20T10:54:32.379Z,0.65
2022-09-20T10:57:10.456Z,0.65
2022-09-20T10:59:39.997Z,0.60
2022-09-20T11:02:13.216Z,0.52
2022-09-20T11:04:42.394Z,0.77
2022-09-20T11:07:17.055Z,0.60
2022-09-20T11:09:46.665Z,0.80
2022-09-20T11:12:16.561Z,1.27
2022-09-20T11:14:53.944Z,0.70
2022-09-20T11:17:24.756Z,0.50
2022-09-20T11:20:14.192Z,1.23
2022-09-20T11:22:43.705Z,0.82
2022-09-20T11:25:14.828Z,0.57
2022-09-20T11:27:47.209Z,0.57
2022-09-20T11:30:23.389Z,0.50
2022-09-20T11:32:55.443Z,0.70
2022-09-20T11:35:42.600Z,0.80
2022-09-20T11:38:41.235Z,0.60
2022-09-20T11:41:11.781Z,0.35
2022-09-20T11:43:42.776Z,0.40
2022-09-20T11:46:10.085Z,0.50
2022-09-20T11:48:39.361Z,0.40
2022-09-20T11:51:05.746Z,0.45
2022-09-20T11:53:36.595Z,0.40
2022-09-20T11:56:07.562Z,0.70
2022-09-20T11:58:44.949Z,1.80
2022-09-20T12:01:12.480Z,0.60
2022-09-20T12:03:41.088Z,0.50
2022-09-20T12:06:28.858Z,0.90
2022-09-20T12:08:57.715Z,0.63
2022-09-20T12:11:32.126Z,0.47
2022-09-20T12:14:19.524Z,0.57
2022-09-20T12:16:47.648Z,0.40
2022-09-20T12:19:32.868Z,0.20
2022-09-20T12:21:59.501Z,0.52
2022-09-20T12:24:30.018Z,0.30
2022-09-20T12:27:00.619Z,0.55
2022-09-20T12:29:26.974Z,0.40
2022-09-20T12:32:16.692Z,0.52
2022-09-20T12:34:43.056Z,0.52
2022-09-20T12:37:12.194Z,0.20
2022-09-20T12:39:39.423Z,0.52
2022-09-20T12:42:05.873Z,0.50
2022-09-20T12:44:37.164Z,0.50
2022-09-20T12:47:06.394Z,1.90
2022-09-20T12:50:02.119Z,0.50
2022-09-20T12:52:49.108Z,1.27
2022-09-20T12:55:30.800Z,0.50
2022-09-20T12:58:14.055Z,0.30
2022-09-20T13:00:42.766Z,0.40
2022-09-20T13:03:12.697Z,0.70
2022-09-20T13:05:40.671Z,0.60
2022-09-20T13:08:14.517Z,0.60
2022-09-20T13:10:47.791Z,0.40
2022-09-20T13:13:27.896Z,0.52
2022-09-20T13:15:54.626Z,0.60
2022-09-20T13:18:22.148Z,0.50
2022-09-20T13:20:48.565Z,0.45
2022-09-20T13:23:29.335Z,0.52
2022-09-20T13:25:57.613Z,0.35
2022-09-20T13:28:27.370Z,0.40
2022-09-20T13:31:14.134Z,0.70
2022-09-20T13:33:40.478Z,0.15
2022-09-20T13:36:07.369Z,1.60
2022-09-20T13:38:34.361Z,0.47
2022-09-20T13:41:09.204Z,0.50
2022-09-20T13:43:41.418Z,0.50
2022-09-20T13:46:07.889Z,0.30
2022-09-20T13:48:34.765Z,0.50
2022-09-20T13:51:01.211Z,0.30
2022-09-20T13:53:41.198Z,0.32
2022-09-20T13:56:21.656Z,0.30
2022-09-20T13:58:48.856Z,0.22
2022-09-20T14:01:24.485Z,0.40
2022-09-20T14:11:21.019Z,0.40
2022-09-20T14:13:52.650Z,0.50
2022-09-20T14:16:20.532Z,0.68
2022-09-20T14:18:48.007Z,0.38
2022-09-20T14:21:17.972Z,0.30
2022-09-20T14:23:54.736Z,0.30
2022-09-20T14:26:25.693Z,0.70
2022-09-20T14:28:52.197Z,0.47
2022-09-20T14:31:18.508Z,0.30
2022-09-20T14:33:50.693Z,0.50
2022-09-20T14:36:21.285Z,0.30
2022-09-20T14:38:48.596Z,0.50
2022-09-20T14:41:23.891Z,0.20
2022-09-20T14:43:54.631Z,0.60
2022-09-20T14:46:28.309Z,0.35
2022-09-20T14:48:54.852Z,0.57
2022-09-20T14:51:23.363Z,0.40
2022-09-20T14:53:51.169Z,0.55
2022-09-20T14:56:26.934Z,0.40
2022-09-20T15:01:23.528Z,0.50
2022-09-20T15:03:50.311Z,0.40
2022-09-20T15:06:16.813Z,0.55
2022-09-20T15:08:46.494Z,0.60
2022-09-20T15:11:17.251Z,0.50
2022-09-20T15:13:43.809Z,0.50
2022-09-20T15:16:14.642Z,0.47
2022-09-20T15:18:42.598Z,0.40
2022-09-20T15:21:10.996Z,0.43
2022-09-20T15:23:37.562Z,0.20
2022-09-20T15:26:04.090Z,0.30
2022-09-20T15:28:32.707Z,0.40
2022-09-20T15:30:59.442Z,0.57
2022-09-20T15:33:28.899Z,0.47
2022-09-20T15:35:55.286Z,0.47
2022-09-20T15:38:22.678Z,0.38
2022-09-20T15:40:49.564Z,0.47
2022-09-20T15:43:23.851Z,0.60
2022-09-20T15:45:51.497Z,0.50
2022-09-20T15:48:22.312Z,0.60
2022-09-20T15:51:01.920Z,0.82
2022-09-20T15:53:31.020Z,0.43
2022-09-20T15:55:59.059Z,0.80
2022-09-20T15:58:25.912Z,0.60
2022-09-20T16:00:52.306Z,0.30
2022-09-20T16:03:18.664Z,0.55
2022-09-20T16:05:44.974Z,0.70
2022-09-20T16:08:11.298Z,0.45
2022-09-20T16:10:38.565Z,1.15
2022-09-20T16:13:04.880Z,0.60
2022-09-20T16:15:31.207Z,0.35
2022-09-20T16:18:16.319Z,1.33
2022-09-20T16:20:42.821Z,0.65
2022-09-20T16:23:09.409Z,0.40
2022-09-20T16:25:36.140Z,0.20
2022-09-20T16:28:02.482Z,0.95
2022-09-20T16:30:29.511Z,0.40
2022-09-20T16:32:56.107Z,0.30
2022-09-20T16:35:22.603Z,0.32
2022-09-20T16:37:48.973Z,0.50
2022-09-20T16:40:15.410Z,0.30
2022-09-20T16:42:42.239Z,0.45
2022-09-20T16:45:09.195Z,0.22
2022-09-20T16:47:37.828Z,0.40
2022-09-20T16:50:04.418Z,0.50
2022-09-20T16:52:30.778Z,0.32
2022-09-20T16:54:57.146Z,0.40
2022-09-20T16:57:23.520Z,0.43
2022-09-20T16:59:51.812Z,0.73
2022-09-20T17:02:18.360Z,0.30
2022-09-20T17:04:44.810Z,0.55
2022-09-20T17:07:11.190Z,0.55
2022-09-20T17:09:37.557Z,0.30
2022-09-20T17:12:06.633Z,0.40
2022-09-20T17:14:33.005Z,0.63
2022-09-20T17:16:59.478Z,0.50
2022-09-20T17:19:26.618Z,0.40
2022-09-20T17:21:53.148Z,0.45
2022-09-20T17:24:22.180Z,0.30
2022-09-20T17:26:50.205Z,0.50
2022-09-20T17:29:17.636Z,0.50
2022-09-20T17:31:53.882Z,0.85
2022-09-20T17:34:22.199Z,0.57
2022-09-20T17:36:49.365Z,0.32
2022-09-20T17:39:16.102Z,0.47
2022-09-20T17:41:44.058Z,1.05
2022-09-20T17:44:11.952Z,1.25
2022-09-20T17:46:42.302Z,0.40
2022-09-20T17:49:12.744Z,0.70
2022-09-20T17:51:40.505Z,0.68
2022-09-20T17:54:07.629Z,0.57
2022-09-20T17:56:35.480Z,0.52
2022-09-20T17:59:02.775Z,0.80
2022-09-20T18:01:30.077Z,0.55
2022-09-20T18:03:57.426Z,0.55
2022-09-20T18:06:28.615Z,0.68
2022-09-20T18:08:57.332Z,0.50
2022-09-20T18:11:29.619Z,0.50
2022-09-20T18:13:56.018Z,0.60
2022-09-20T18:16:23.814Z,0.77
2022-09-20T18:18:50.326Z,0.55
2022-09-20T18:21:17.571Z,0.50
2022-09-20T18:23:44.534Z,0.52
2022-09-20T18:26:22.799Z,0.40
2022-09-20T18:28:58.029Z,0.60
2022-09-20T18:31:26.091Z,0.57
2022-09-20T18:33:53.171Z,0.32
2022-09-20T18:36:19.845Z,0.40
2022-09-20T18:38:46.219Z,0.55
2022-09-20T18:41:14.469Z,2.63
2022-09-20T18:43:44.156Z,0.60
2022-09-20T18:46:11.487Z,1.00
2022-09-20T18:48:40.071Z,1.05
2022-09-20T18:51:07.325Z,0.82
2022-09-20T18:53:38.521Z,0.73
2022-09-20T18:56:06.148Z,0.77
2022-09-20T18:58:32.545Z,0.50
2022-09-20T19:01:21.781Z,1.23
2022-09-20T19:03:54.427Z,1.20
2022-09-20T19:06:24.028Z,1.08
2022-09-20T19:08:56.993Z,1.15
2022-09-20T19:11:27.239Z,1.40
2022-09-20T19:14:13.849Z,1.70
2022-09-20T19:16:41.854Z,1.30
2022-09-20T19:19:19.178Z,1.60
2022-09-20T19:22:08.652Z,1.80
2022-09-20T19:24:43.579Z,1.05
2022-09-20T19:27:12.099Z,1.48
2022-09-20T19:29:38.712Z,1.00
2022-09-20T19:32:06.120Z,1.38
2022-09-20T19:34:32.842Z,0.77
2022-09-20T19:37:02.209Z,1.55
2022-09-20T19:39:48.939Z,1.20
2022-09-20T19:42:24.509Z,1.70
2022-09-20T19:45:09.859Z,2.10
2022-09-20T19:47:36.807Z,1.23
2022-09-20T19:50:27.919Z,1.80
2022-09-20T19:52:56.164Z,1.60
2022-09-20T19:55:22.743Z,1.35
2022-09-20T19:57:49.438Z,1.40
2022-09-20T20:00:20.249Z,1.08
2022-09-20T20:02:46.960Z,1.40
2022-09-20T20:05:14.643Z,1.35
2022-09-20T20:08:00.193Z,1.05
2022-09-20T20:10:49.745Z,1.13
2022-09-20T20:13:40.237Z,1.13
2022-09-20T20:16:10.682Z,1.15
2022-09-20T20:18:43.712Z,0.93
2022-09-20T20:21:20.289Z,1.70
2022-09-20T20:24:08.988Z,1.00
2022-09-20T20:26:35.412Z,0.93
2022-09-20T20:29:01.802Z,0.80
2022-09-20T20:31:29.451Z,1.45
2022-09-20T20:33:55.965Z,1.40
2022-09-20T20:36:22.387Z,1.00
2022-09-20T20:38:53.082Z,1.02
2022-09-20T20:41:21.249Z,1.00
2022-09-20T20:43:48.221Z,0.95
2022-09-20T20:46:15.782Z,1.10
2022-09-20T20:48:42.562Z,1.30
2022-09-20T20:51:13.002Z,1.10
2022-09-20T20:53:40.790Z,1.08
2022-09-20T20:56:08.509Z,1.60
2022-09-20T20:58:36.238Z,1.52
2022-09-20T21:01:06.553Z,0.90
2022-09-20T21:03:33.823Z,1.42
2022-09-20T21:06:00.251Z,1.38
2022-09-20T21:08:34.216Z,1.55
2022-09-20T21:11:05.259Z,1.30
2022-09-20T21:13:32.929Z,0.93
2022-09-20T21:16:06.382Z,1.25
2022-09-20T21:18:33.734Z,1.10
2022-09-20T21:21:00.837Z,1.25
2022-09-20T21:23:27.244Z,1.10
2022-09-20T21:26:01.011Z,1.45
2022-09-20T21:28:27.432Z,1.30
2022-09-20T21:30:59.410Z,1.20
2022-09-20T21:33:31.015Z,1.13
2022-09-20T21:36:00.620Z,0.90
2022-09-20T21:38:28.492Z,1.13
2022-09-20T21:41:24.333Z,0.70
2022-09-20T21:43:55.271Z,0.98
2022-09-20T21:46:21.726Z,0.80
2022-09-20T21:48:48.792Z,0.95
2022-09-20T21:51:16.121Z,0.70
2022-09-20T21:53:42.520Z,0.90
2022-09-20T21:56:10.793Z,0.80
2022-09-20T21:58:39.911Z,0.93
2022-09-20T22:01:10.019Z,1.08
2022-09-20T22:03:37.475Z,1.38
2022-09-20T22:06:04.653Z,1.13
2022-09-20T22:08:30.956Z,1.10
2022-09-20T22:10:57.897Z,1.00
2022-09-20T22:13:24.658Z,0.98
2022-09-20T22:15:51.524Z,1.10
2022-09-20T22:18:17.960Z,1.10
2022-09-20T22:20:45.653Z,1.30
2022-09-20T22:23:12.142Z,1.20
2022-09-20T22:25:38.658Z,1.33
2022-09-20T22:28:05.272Z,0.88
2022-09-20T22:30:32.952Z,1.25
2022-09-20T22:32:59.483Z,1.25
2022-09-20T22:35:26.016Z,1.05
2022-09-20T22:37:52.497Z,0.75
2022-09-20T22:40:19.854Z,0.60
2022-09-20T22:42:46.427Z,1.15
2022-09-20T22:45:12.970Z,1.35
2022-09-20T22:47:39.502Z,1.20
2022-09-20T22:50:06.398Z,1.05
2022-09-20T22:52:32.913Z,1.00
2022-09-20T22:54:59.419Z,1.38
2022-09-20T22:57:26.860Z,1.33
2022-09-20T22:59:53.398Z,1.40
2022-09-20T23:02:19.905Z,1.15
2022-09-20T23:04:46.385Z,1.20
2022-09-20T23:07:12.865Z,2.00
2022-09-20T23:09:39.346Z,1.85
2022-09-20T23:12:05.905Z,2.35
2022-09-20T23:14:32.682Z,1.60
2022-09-20T23:16:59.350Z,1.65
2022-09-20T23:19:26.486Z,1.95
2022-09-20T23:21:53.106Z,1.73
2022-09-20T23:24:19.607Z,1.70
2022-09-20T23:26:46.736Z,1.25
2022-09-20T23:29:14.661Z,1.55
2022-09-20T23:31:45.889Z,1.33
2022-09-20T23:34:13.242Z,1.50
2022-09-20T23:36:40.695Z,1.60
2022-09-20T23:39:07.938Z,1.45
2022-09-20T23:41:36.663Z,1.55
2022-09-20T23:44:06.182Z,1.70
2022-09-20T23:46:33.400Z,2.00
2022-09-20T23:48:59.985Z,1.67
2022-09-20T23:51:26.623Z,1.52
2022-09-20T23:53:53.290Z,1.65
2022-09-20T23:56:20.000Z,1.30
2022-09-20T23:58:46.569Z,1.30
